createdAt,value
2023-04-28T00:00:10.464Z,96251.50
2023-04-28T00:02:38.854Z,96235.06
2023-04-28T00:05:11.287Z,96247.00
2023-04-28T00:07:39.672Z,96252.56
2023-04-28T00:10:10.851Z,96253.91
2023-04-28T00:12:39.323Z,96248.09
2023-04-28T00:15:13.897Z,96242.69
2023-04-28T00:17:42.271Z,96243.69
2023-04-28T00:20:12.033Z,96247.94
2023-04-28T00:22:44.786Z,96244.69
2023-04-28T00:25:13.199Z,96236.09
2023-04-28T00:27:44.039Z,96232.53
2023-04-28T00:30:14.145Z,96236.88
2023-04-28T00:32:44.857Z,96234.88
2023-04-28T00:35:13.212Z,96230.66
2023-04-28T00:37:41.635Z,96239.66
2023-04-28T00:40:11.395Z,96233.34
2023-04-28T00:42:46.259Z,96233.59
2023-04-28T00:45:22.368Z,96232.16
2023-04-28T00:47:50.775Z,96224.97
2023-04-28T00:50:21.752Z,96223.41
2023-04-28T00:52:49.857Z,96206.13
2023-04-28T00:55:20.011Z,96215.41
2023-04-28T00:57:51.558Z,96212.34
2023-04-28T01:00:21.492Z,96196.16
2023-04-28T01:02:51.015Z,96215.00
2023-04-28T01:05:22.551Z,96214.84
2023-04-28T01:07:52.066Z,96216.53
2023-04-28T01:10:22.088Z,96217.19
2023-04-28T01:12:50.315Z,96208.78
2023-04-28T01:15:24.861Z,96203.00
2023-04-28T01:17:53.908Z,96196.09
2023-04-28T01:20:21.987Z,96196.44
2023-04-28T01:22:50.365Z,96199.44
2023-04-28T01:25:26.682Z,96195.84
2023-04-28T01:27:59.872Z,96183.28
2023-04-28T01:30:30.196Z,96184.09
2023-04-28T01:33:03.614Z,96179.44
2023-04-28T01:35:32.155Z,96183.22
2023-04-28T01:37:59.913Z,96193.09
2023-04-28T01:40:30.050Z,96196.88
2023-04-28T01:43:01.474Z,96171.03
2023-04-28T01:45:30.876Z,96165.84
2023-04-28T01:48:00.770Z,96164.75
2023-04-28T01:50:28.934Z,96174.72
2023-04-28T01:52:59.386Z,96175.19
2023-04-28T01:55:30.231Z,96167.66
2023-04-28T01:57:58.633Z,96167.75
2023-04-28T02:00:27.540Z,96158.63
2023-04-28T02:02:55.602Z,96156.59
2023-04-28T02:05:30.044Z,96149.41
2023-04-28T02:08:02.570Z,96155.78
2023-04-28T02:10:34.920Z,96151.00
2023-04-28T02:13:03.447Z,96149.91
2023-04-28T02:15:31.515Z,96164.19
2023-04-28T02:18:01.942Z,96162.31
2023-04-28T02:20:31.900Z,96157.00
2023-04-28T02:23:11.346Z,96158.38
2023-04-28T02:25:42.809Z,96159.16
2023-04-28T02:28:13.445Z,96149.44
2023-04-28T02:30:41.731Z,96145.97
2023-04-28T02:33:12.146Z,96146.19
2023-04-28T02:35:39.963Z,96139.59
2023-04-28T02:38:08.211Z,96145.97
2023-04-28T02:40:38.342Z,96160.06
2023-04-28T02:43:08.343Z,96148.41
2023-04-28T02:45:36.763Z,96157.94
2023-04-28T02:48:05.541Z,96158.56
2023-04-28T02:50:36.673Z,96165.31
2023-04-28T02:53:04.828Z,96171.53
2023-04-28T02:55:36.693Z,96170.72
2023-04-28T02:58:05.069Z,96188.59
2023-04-28T03:00:35.776Z,96158.63
2023-04-28T03:03:06.620Z,96162.94
2023-04-28T03:05:35.452Z,96159.97
2023-04-28T03:08:03.553Z,96153.34
2023-04-28T03:10:31.540Z,96149.31
2023-04-28T03:13:01.466Z,96138.00
2023-04-28T03:15:30.089Z,96127.38
2023-04-28T03:17:59.479Z,96144.84
2023-04-28T03:20:28.755Z,96128.94
2023-04-28T03:22:57.063Z,96127.38
2023-04-28T03:25:27.976Z,96127.97
2023-04-28T03:27:56.236Z,96136.03
2023-04-28T03:30:25.998Z,96133.25
2023-04-28T03:32:56.665Z,96126.78
2023-04-28T03:35:32.527Z,96133.81
2023-04-28T03:38:01.093Z,96119.94
2023-04-28T03:40:29.460Z,96116.31
2023-04-28T03:42:59.276Z,96056.13
2023-04-28T03:45:27.886Z,96111.34
2023-04-28T03:47:59.039Z,96104.91
2023-04-28T03:50:31.395Z,96099.31
2023-04-28T03:53:04.480Z,96103.31
2023-04-28T03:55:33.004Z,96073.91
2023-04-28T03:58:01.772Z,96103.38
2023-04-28T04:00:30.127Z,96090.69
2023-04-28T04:02:58.516Z,96107.00
2023-04-28T04:05:28.914Z,96095.03
2023-04-28T04:07:58.692Z,96099.63
2023-04-28T04:10:26.686Z,96102.38
2023-04-28T04:12:54.865Z,96099.13
2023-04-28T04:15:23.468Z,96094.03
2023-04-28T04:17:52.083Z,96089.09
2023-04-28T04:20:20.239Z,96094.78
2023-04-28T04:22:48.140Z,96092.41
2023-04-28T04:25:22.773Z,96091.94
2023-04-28T04:27:59.599Z,96071.38
2023-04-28T04:30:32.867Z,96085.09
2023-04-28T04:33:03.789Z,96081.84
2023-04-28T04:35:32.381Z,96086.94
2023-04-28T04:38:01.627Z,96087.13
2023-04-28T04:40:32.280Z,96090.78
2023-04-28T04:43:00.717Z,96080.75
2023-04-28T04:45:29.043Z,96019.84
2023-04-28T04:48:00.507Z,96017.88
2023-04-28T04:50:29.040Z,96070.00
2023-04-28T04:53:00.725Z,96048.97
2023-04-28T04:55:41.795Z,96090.03
2023-04-28T04:58:09.691Z,96062.50
2023-04-28T05:00:38.679Z,96101.78
2023-04-28T05:03:07.908Z,96083.63
2023-04-28T05:05:40.530Z,96076.50
2023-04-28T05:08:15.681Z,96089.03
2023-04-28T05:10:48.570Z,96099.41
2023-04-28T05:13:21.178Z,96092.19
2023-04-28T05:15:48.916Z,96094.28
2023-04-28T05:18:19.469Z,96100.19
2023-04-28T05:20:49.015Z,96099.84
2023-04-28T05:23:20.676Z,96095.56
2023-04-28T05:25:53.684Z,96094.75
2023-04-28T05:28:22.279Z,96101.03
2023-04-28T05:30:52.130Z,96094.75
2023-04-28T05:33:20.314Z,96093.28
2023-04-28T05:35:49.173Z,96095.94
2023-04-28T05:38:17.164Z,96091.59
2023-04-28T05:40:46.663Z,96100.03
2023-04-28T05:43:18.879Z,96094.22
2023-04-28T05:45:47.314Z,96092.50
2023-04-28T05:48:16.508Z,96090.69
2023-04-28T05:50:44.608Z,96087.88
2023-04-28T05:53:12.446Z,96083.09
2023-04-28T05:55:43.251Z,96086.72
2023-04-28T05:58:11.731Z,96092.06
2023-04-28T06:00:43.960Z,96093.72
2023-04-28T06:03:14.915Z,96071.53
2023-04-28T06:05:46.252Z,96077.06
2023-04-28T06:08:14.804Z,96092.53
2023-04-28T06:10:46.103Z,96090.22
2023-04-28T06:13:17.140Z,96053.34
2023-04-28T06:15:48.638Z,96099.63
2023-04-28T06:18:19.282Z,96088.78
2023-04-28T06:20:48.814Z,96088.56
2023-04-28T06:23:20.699Z,96083.97
2023-04-28T06:25:49.293Z,96086.91
2023-04-28T06:28:22.518Z,96086.69
2023-04-28T06:30:53.017Z,96086.56
2023-04-28T06:33:22.388Z,96084.38
2023-04-28T06:35:53.451Z,96086.06
2023-04-28T06:38:24.735Z,96079.31
2023-04-28T06:40:55.961Z,96070.19
2023-04-28T06:43:24.279Z,96028.91
2023-04-28T06:45:54.457Z,96123.44
2023-04-28T06:48:25.468Z,96062.03
2023-04-28T06:50:53.534Z,96067.88
2023-04-28T06:53:22.675Z,96075.34
2023-04-28T06:55:54.963Z,96078.56
2023-04-28T06:58:23.699Z,96062.84
2023-04-28T07:01:06.155Z,96061.84
2023-04-28T07:03:35.074Z,96001.78
2023-04-28T07:06:03.540Z,96053.75
2023-04-28T07:08:37.815Z,96017.16
2023-04-28T07:11:07.307Z,96051.38
2023-04-28T07:13:36.268Z,96051.03
2023-04-28T07:16:06.604Z,96052.03
2023-04-28T07:18:38.970Z,96051.13
2023-04-28T07:21:08.111Z,96049.13
2023-04-28T07:23:38.680Z,96052.78
2023-04-28T07:26:10.275Z,96056.13
2023-04-28T07:28:38.760Z,96035.41
2023-04-28T07:31:23.277Z,96057.25
2023-04-28T07:33:55.340Z,96054.59
2023-04-28T07:36:24.173Z,96055.00
2023-04-28T07:38:55.503Z,96049.00
2023-04-28T07:41:24.241Z,96053.41
2023-04-28T07:43:52.990Z,96051.88
2023-04-28T07:46:23.866Z,96054.31
2023-04-28T07:48:55.087Z,96061.94
2023-04-28T07:51:23.145Z,96066.59
2023-04-28T07:53:51.633Z,96066.34
2023-04-28T07:56:26.893Z,96062.34
2023-04-28T07:58:55.416Z,96065.44
2023-04-28T08:01:26.648Z,96063.59
2023-04-28T08:03:55.164Z,96069.13
2023-04-28T08:06:26.306Z,96078.41
2023-04-28T08:08:56.686Z,95991.84
2023-04-28T08:11:26.558Z,96083.84
2023-04-28T08:13:57.769Z,96085.69
2023-04-28T08:16:30.808Z,96083.91
2023-04-28T08:18:59.331Z,96064.19
2023-04-28T08:21:28.002Z,96093.94
2023-04-28T08:23:56.553Z,96096.09
2023-04-28T08:26:24.845Z,96097.59
2023-04-28T08:28:52.926Z,96096.00
2023-04-28T08:31:24.270Z,96109.69
2023-04-28T08:33:55.621Z,96112.16
2023-04-28T08:36:31.852Z,96104.03
2023-04-28T08:39:03.970Z,96108.78
2023-04-28T08:41:34.606Z,96103.91
2023-04-28T08:44:02.461Z,96073.91
2023-04-28T08:46:37.149Z,96105.38
2023-04-28T08:49:09.350Z,96118.44
2023-04-28T08:51:42.757Z,96084.63
2023-04-28T08:54:29.767Z,96120.63
2023-04-28T08:56:59.173Z,96126.47
2023-04-28T08:59:30.705Z,96127.00
2023-04-28T09:02:01.327Z,96127.78
2023-04-28T09:04:32.838Z,95906.16
2023-04-28T09:07:01.227Z,96134.63
2023-04-28T09:09:37.129Z,96140.09
2023-04-28T09:12:14.487Z,96115.81
2023-04-28T09:14:45.711Z,96139.91
2023-04-28T09:17:16.624Z,96125.28
2023-04-28T09:19:46.647Z,96129.22
2023-04-28T09:22:26.890Z,96135.34
2023-04-28T09:24:57.539Z,96136.94
2023-04-28T09:27:34.451Z,96136.03
2023-04-28T09:30:06.082Z,96140.66
2023-04-28T09:32:39.260Z,96133.56
2023-04-28T09:35:12.888Z,96140.59
2023-04-28T09:37:43.375Z,96127.16
2023-04-28T09:40:14.500Z,95980.84
2023-04-28T09:42:43.858Z,96136.09
2023-04-28T09:45:15.372Z,96091.97
2023-04-28T09:47:47.244Z,96129.25
2023-04-28T09:50:18.900Z,96129.09
2023-04-28T09:52:57.932Z,96129.88
2023-04-28T09:55:28.706Z,96124.25
2023-04-28T09:57:57.556Z,96107.91
2023-04-28T10:00:29.222Z,96134.78
2023-04-28T10:03:00.645Z,96127.50
2023-04-28T10:05:33.297Z,96135.13
2023-04-28T10:08:03.203Z,96133.53
2023-04-28T10:10:31.513Z,96136.94
2023-04-28T10:13:01.470Z,96122.47
2023-04-28T10:15:29.544Z,96126.28
2023-04-28T10:18:02.673Z,96128.22
2023-04-28T10:20:35.174Z,96133.31
2023-04-28T10:23:12.967Z,96134.50
2023-04-28T10:25:41.703Z,96126.59
2023-04-28T10:28:21.126Z,96100.66
2023-04-28T10:31:13.303Z,96096.47
2023-04-28T10:33:44.675Z,96079.94
2023-04-28T10:36:51.208Z,96114.28
2023-04-28T10:39:24.315Z,96111.09
2023-04-28T10:41:55.951Z,96117.88
2023-04-28T10:44:46.152Z,96122.53
2023-04-28T10:47:14.364Z,96120.44
2023-04-28T10:50:11.318Z,96124.34
2023-04-28T10:52:59.208Z,96118.41
2023-04-28T10:55:33.449Z,96129.53
2023-04-28T10:58:37.600Z,96126.63
2023-04-28T11:01:32.542Z,96078.59
2023-04-28T11:04:04.138Z,96124.00
2023-04-28T11:06:37.018Z,96094.56
2023-04-28T11:09:51.781Z,96132.94
2023-04-28T11:12:22.225Z,96127.38
2023-04-28T11:14:51.017Z,96122.81
2023-04-28T11:17:41.459Z,96124.94
2023-04-28T11:20:18.275Z,96121.66
2023-04-28T11:22:54.073Z,96119.28
2023-04-28T11:25:22.849Z,96126.75
2023-04-28T11:28:11.220Z,96125.88
2023-04-28T11:30:40.374Z,96118.50
2023-04-28T11:33:10.182Z,96103.38
2023-04-28T11:35:42.940Z,96129.97
2023-04-28T11:38:11.334Z,96126.13
2023-04-28T11:40:41.425Z,96113.00
2023-04-28T11:43:10.832Z,96131.53
2023-04-28T11:45:39.019Z,96125.13
2023-04-28T11:48:24.738Z,96126.69
2023-04-28T11:50:55.109Z,96113.81
2023-04-28T11:53:44.397Z,96116.31
2023-04-28T11:56:13.717Z,96116.28
2023-04-28T11:58:46.850Z,96115.06
2023-04-28T12:01:20.709Z,96117.72
2023-04-28T12:03:50.251Z,96118.88
2023-04-28T12:06:20.671Z,96072.84
2023-04-28T12:08:48.609Z,96105.78
2023-04-28T12:11:19.959Z,96094.28
2023-04-28T12:14:08.623Z,96105.81
2023-04-28T12:16:49.440Z,96056.00
2023-04-28T12:19:17.999Z,96014.00
2023-04-28T12:22:01.728Z,96102.50
2023-04-28T12:24:31.619Z,96107.84
2023-04-28T12:27:24.012Z,95859.28
2023-04-28T12:29:58.447Z,96137.16
2023-04-28T12:32:40.433Z,96113.53
2023-04-28T12:35:09.653Z,96113.53
2023-04-28T12:37:41.948Z,96126.38
2023-04-28T12:40:14.821Z,96107.19
2023-04-28T12:42:45.310Z,96105.63
2023-04-28T12:45:16.697Z,96106.63
2023-04-28T12:47:47.646Z,96080.56
2023-04-28T12:50:16.083Z,96105.88
2023-04-28T12:52:54.256Z,96100.28
2023-04-28T12:55:24.652Z,96090.94
2023-04-28T12:57:56.793Z,96085.50
2023-04-28T13:00:26.781Z,96049.88
2023-04-28T13:02:59.267Z,96063.22
2023-04-28T13:05:27.946Z,96052.69
2023-04-28T13:07:55.822Z,96051.38
2023-04-28T13:10:29.839Z,96069.31
2023-04-28T13:13:00.416Z,96067.13
2023-04-28T13:15:33.258Z,96070.63
2023-04-28T13:18:01.641Z,96078.28
2023-04-28T13:20:29.564Z,96070.41
2023-04-28T13:23:00.058Z,96064.09
2023-04-28T13:25:28.177Z,96072.88
2023-04-28T13:27:59.383Z,96083.75
2023-04-28T13:30:35.569Z,96036.41
2023-04-28T13:33:03.758Z,96082.13
2023-04-28T13:35:34.501Z,96081.03
2023-04-28T13:38:08.429Z,96090.34
2023-04-28T13:40:37.100Z,96085.94
2023-04-28T13:43:08.033Z,96074.75
2023-04-28T13:45:39.236Z,96075.41
2023-04-28T13:48:12.490Z,96082.13
2023-04-28T13:50:40.572Z,96067.81
2023-04-28T13:53:17.513Z,96071.00
2023-04-28T13:55:45.499Z,96077.22
2023-04-28T13:58:14.734Z,96073.34
2023-04-28T14:00:46.712Z,96060.91
2023-04-28T14:03:16.676Z,96051.56
2023-04-28T14:05:49.689Z,96058.97
2023-04-28T14:08:19.435Z,96064.56
2023-04-28T14:10:48.684Z,96040.16
2023-04-28T14:13:31.049Z,96067.88
2023-04-28T14:16:00.909Z,96071.91
2023-04-28T14:18:35.463Z,96058.69
2023-04-28T14:21:08.211Z,96079.22
2023-04-28T14:23:38.517Z,96074.63
2023-04-28T14:26:09.151Z,96071.72
2023-04-28T14:28:38.103Z,96061.38
2023-04-28T14:31:12.672Z,96064.59
2023-04-28T14:33:43.490Z,96069.91
2023-04-28T14:36:11.552Z,96060.56
2023-04-28T14:38:40.385Z,96060.75
2023-04-28T14:41:11.948Z,96051.94
2023-04-28T14:43:40.348Z,96048.59
2023-04-28T14:46:12.531Z,96055.56
2023-04-28T14:48:40.974Z,96065.72
2023-04-28T14:51:09.528Z,96043.75
2023-04-28T14:53:37.854Z,96063.44
2023-04-28T14:56:17.903Z,96069.88
2023-04-28T15:01:32.464Z,96044.97
2023-04-28T15:04:01.372Z,96048.06
2023-04-28T15:06:35.199Z,96035.34
2023-04-28T15:09:03.641Z,96058.69
2023-04-28T15:11:31.975Z,96052.31
2023-04-28T15:14:01.410Z,96046.59
2023-04-28T15:16:32.539Z,96054.28
2023-04-28T15:19:05.335Z,96052.56
2023-04-28T15:21:35.972Z,96050.22
2023-04-28T15:24:06.682Z,96059.19
2023-04-28T15:26:35.413Z,96041.91
2023-04-28T15:29:04.812Z,96044.59
2023-04-28T15:31:35.067Z,96044.06
2023-04-28T15:34:07.850Z,96044.44
2023-04-28T15:36:39.096Z,96045.09
2023-04-28T15:39:07.614Z,96047.81
2023-04-28T15:41:38.136Z,96048.69
2023-04-28T15:44:07.386Z,96031.50
2023-04-28T15:46:38.050Z,96035.28
2023-04-28T15:49:09.363Z,96046.78
2023-04-28T15:51:38.325Z,95991.84
2023-04-28T15:54:08.364Z,96030.13
2023-04-28T15:56:42.099Z,96023.09
2023-04-28T15:59:15.163Z,96035.44
2023-04-28T16:01:43.588Z,96035.50
2023-04-28T16:04:18.384Z,96035.50
2023-04-28T16:06:46.595Z,96038.31
2023-04-28T16:09:17.703Z,96042.81
2023-04-28T16:11:48.713Z,95778.59
2023-04-28T16:14:18.424Z,96046.50
2023-04-28T16:16:46.644Z,96040.09
2023-04-28T16:19:16.595Z,95855.69
2023-04-28T16:21:44.617Z,96035.34
2023-04-28T16:24:13.195Z,96033.72
2023-04-28T16:26:44.814Z,95990.56
2023-04-28T16:29:14.737Z,96034.41
2023-04-28T16:31:43.200Z,96030.25
2023-04-28T16:34:13.626Z,96031.81
2023-04-28T16:36:45.609Z,96034.81
2023-04-28T16:39:14.023Z,96039.03
2023-04-28T16:41:42.303Z,96027.31
2023-04-28T16:44:22.183Z,96047.81
2023-04-28T16:46:50.638Z,96036.16
2023-04-28T16:49:20.954Z,96042.16
2023-04-28T16:52:05.317Z,96040.47
2023-04-28T16:54:52.919Z,96010.56
2023-04-28T16:57:26.659Z,96030.66
2023-04-28T16:59:59.084Z,96032.44
2023-04-28T17:02:29.133Z,96037.09
2023-04-28T17:04:57.251Z,96042.06
2023-04-28T17:07:29.700Z,96025.63
2023-04-28T17:09:59.861Z,96029.59
2023-04-28T17:12:33.486Z,96020.69
2023-04-28T17:15:01.415Z,96012.41
2023-04-28T17:17:30.310Z,95983.59
2023-04-28T17:20:02.351Z,96005.66
2023-04-28T17:22:37.673Z,96024.63
2023-04-28T17:25:16.047Z,95991.81
2023-04-28T17:27:44.083Z,96024.38
2023-04-28T17:30:14.474Z,96026.50
2023-04-28T17:32:43.197Z,96031.84
2023-04-28T17:35:13.991Z,96037.81
2023-04-28T17:37:49.919Z,96027.94
2023-04-28T17:40:20.520Z,96023.94
2023-04-28T17:42:49.285Z,96028.16
2023-04-28T17:45:17.423Z,95937.47
2023-04-28T17:47:48.200Z,96021.41
2023-04-28T17:50:16.162Z,96019.72
2023-04-28T17:52:44.242Z,96023.63
2023-04-28T17:55:13.845Z,96034.69
2023-04-28T17:57:46.461Z,96026.66
2023-04-28T18:00:18.183Z,96021.94
2023-04-28T18:02:48.227Z,96019.69
2023-04-28T18:05:17.479Z,96021.22
2023-04-28T18:07:50.308Z,96033.69
2023-04-28T18:10:21.070Z,96040.28
2023-04-28T18:12:50.974Z,96048.84
2023-04-28T18:15:20.650Z,96045.59
2023-04-28T18:17:51.807Z,96044.72
2023-04-28T18:20:20.698Z,96052.56
2023-04-28T18:22:51.006Z,96064.75
2023-04-28T18:25:21.017Z,96055.41
2023-04-28T18:27:51.451Z,96067.28
2023-04-28T18:30:24.424Z,96061.81
2023-04-28T18:32:52.254Z,96067.31
2023-04-28T18:35:27.291Z,96068.97
2023-04-28T18:37:57.870Z,96059.59
2023-04-28T18:40:33.919Z,96040.72
2023-04-28T18:43:07.792Z,96071.84
2023-04-28T18:45:41.317Z,96074.09
2023-04-28T18:48:16.304Z,96077.22
2023-04-28T18:50:54.963Z,96089.53
2023-04-28T18:53:24.122Z,96083.06
2023-04-28T18:55:58.611Z,96080.63
2023-04-28T18:58:37.717Z,96090.22
2023-04-28T19:01:12.604Z,96089.13
2023-04-28T19:03:43.909Z,96094.47
2023-04-28T19:06:27.931Z,96066.69
2023-04-28T19:08:59.828Z,96102.00
2023-04-28T19:11:30.747Z,96107.31
2023-04-28T19:14:07.902Z,96101.41
2023-04-28T19:16:35.814Z,96109.78
2023-04-28T19:19:09.608Z,96109.66
2023-04-28T19:21:45.131Z,96095.16
2023-04-28T19:24:15.504Z,96117.34
2023-04-28T19:26:47.192Z,96008.63
2023-04-28T19:29:19.292Z,96115.69
2023-04-28T19:31:50.985Z,96114.59
2023-04-28T19:34:19.436Z,96122.09
2023-04-28T19:36:47.460Z,96117.53
2023-04-28T19:39:17.991Z,96119.34
2023-04-28T19:41:48.458Z,96121.13
2023-04-28T19:44:20.449Z,96128.66
2023-04-28T19:46:50.754Z,96111.88
2023-04-28T19:49:19.419Z,96120.84
2023-04-28T19:51:54.280Z,96129.75
2023-04-28T19:54:23.568Z,96131.00
2023-04-28T19:56:57.615Z,96108.09
2023-04-28T19:59:27.569Z,96129.31
2023-04-28T20:02:09.014Z,96128.72
2023-04-28T20:04:40.534Z,96105.63
2023-04-28T20:07:12.037Z,96135.13
2023-04-28T20:09:40.476Z,96134.16
2023-04-28T20:12:11.669Z,96135.94
2023-04-28T20:14:40.157Z,96137.00
2023-04-28T20:17:10.341Z,96171.66
2023-04-28T20:19:40.660Z,96137.13
2023-04-28T20:22:09.027Z,96090.16
2023-04-28T20:24:37.497Z,96133.78
2023-04-28T20:27:14.673Z,96128.03
2023-04-28T20:29:44.314Z,96124.16
2023-04-28T20:32:14.637Z,96130.59
2023-04-28T20:34:46.056Z,96117.38
2023-04-28T20:37:16.282Z,96107.69
2023-04-28T20:39:44.763Z,96122.00
2023-04-28T20:42:12.747Z,96127.38
2023-04-28T20:44:41.055Z,96125.38
2023-04-28T20:47:10.924Z,96121.72
2023-04-28T20:49:39.485Z,96116.59
2023-04-28T20:52:07.817Z,96105.53
2023-04-28T20:54:36.479Z,96114.22
2023-04-28T20:57:15.955Z,96086.38
2023-04-28T20:59:44.510Z,96122.31
2023-04-28T21:02:15.554Z,96127.16
2023-04-28T21:04:43.370Z,96131.41
2023-04-28T21:07:12.993Z,96125.66
2023-04-28T21:09:42.538Z,96132.97
2023-04-28T21:12:13.053Z,96143.03
2023-04-28T21:14:40.868Z,96143.94
2023-04-28T21:17:12.519Z,96142.72
2023-04-28T21:19:42.595Z,96122.81
2023-04-28T21:22:14.896Z,96135.94
2023-04-28T21:24:43.109Z,96140.25
2023-04-28T21:27:15.257Z,96143.00
2023-04-28T21:29:44.541Z,96146.16
2023-04-28T21:32:13.147Z,96143.63
2023-04-28T21:34:43.853Z,96148.47
2023-04-28T21:37:11.712Z,96143.38
2023-04-28T21:39:40.625Z,96142.63
2023-04-28T21:42:09.362Z,96150.91
2023-04-28T21:44:40.394Z,96149.28
2023-04-28T21:47:09.207Z,96143.91
2023-04-28T21:49:37.506Z,96153.09
2023-04-28T21:52:06.997Z,96151.84
2023-04-28T21:54:39.084Z,96140.41
2023-04-28T21:57:06.901Z,96127.25
2023-04-28T21:59:37.506Z,96157.78
2023-04-28T22:02:07.982Z,96155.88
2023-04-28T22:04:37.227Z,96156.28
2023-04-28T22:07:10.044Z,96154.63
2023-04-28T22:09:41.545Z,96147.72
2023-04-28T22:12:09.279Z,96144.00
2023-04-28T22:14:41.005Z,96128.88
2023-04-28T22:17:10.202Z,96138.66
2023-04-28T22:19:38.233Z,96108.63
2023-04-28T22:22:07.731Z,96148.19
2023-04-28T22:24:35.519Z,96152.56
2023-04-28T22:27:06.428Z,96084.94
2023-04-28T22:29:34.939Z,96127.13
2023-04-28T22:32:10.076Z,96150.22
2023-04-28T22:34:38.536Z,96151.28
2023-04-28T22:37:09.459Z,95885.38
2023-04-28T22:39:39.828Z,96149.13
2023-04-28T22:42:11.233Z,96148.38
2023-04-28T22:44:39.645Z,96151.84
2023-04-28T22:47:10.533Z,96145.97
2023-04-28T22:49:38.617Z,96146.84
2023-04-28T22:52:11.101Z,96146.25
2023-04-28T22:54:39.728Z,96149.28
2023-04-28T22:57:08.085Z,96135.34
2023-04-28T22:59:36.136Z,96088.81
2023-04-28T23:02:05.017Z,96130.13
2023-04-28T23:04:34.919Z,96142.19
2023-04-28T23:07:05.949Z,96143.81
2023-04-28T23:09:37.200Z,96123.59
2023-04-28T23:12:10.614Z,96151.53
2023-04-28T23:14:38.557Z,96154.09
2023-04-28T23:17:06.544Z,96147.28
2023-04-28T23:19:35.701Z,96148.38
2023-04-28T23:22:06.446Z,96130.75
2023-04-28T23:24:37.449Z,96145.75
2023-04-28T23:27:09.486Z,96087.56
2023-04-28T23:29:37.793Z,96147.84
2023-04-28T23:32:07.624Z,96151.25
2023-04-28T23:34:38.387Z,96148.97
2023-04-28T23:37:06.729Z,96156.38
2023-04-28T23:39:36.106Z,96154.84
2023-04-28T23:42:05.839Z,96158.00
2023-04-28T23:44:34.331Z,96151.94
2023-04-28T23:47:02.717Z,96144.28
2023-04-28T23:49:31.068Z,96119.06
2023-04-28T23:52:05.889Z,96142.00
2023-04-28T23:54:42.669Z,96142.47
2023-04-28T23:57:10.505Z,96142.63
2023-04-28T23:59:38.318Z,96110.22
